Flight Track Log - Related Links

Times and Time Zones

All times are in EDT time to prevent confusion due to time zone crossing. See the QXE2633 flight status page for this flight to view local times or setup timezone preferences in your user account.

Time Position Orientation Groundspeed Altitude Reporting Facility
EDT Latitude Longitude Course Direction KTS MPH feet Rate Location/Type
Wed 05:44:00 PM 45.0309 -122.5067 173° South  Level Estimated
Wed 05:45:00 PM 44.9512 -122.4939 174° South  Level Estimated
Wed 05:46:00 PM 44.8715 -122.4812 174° South  Level Estimated
Wed 05:47:00 PM 44.7918 -122.4686 174° South  Level Estimated
Wed 05:48:00 PM 44.7121 -122.4559 174° South  Level Estimated
Wed 05:49:00 PM 44.6324 -122.4433 174° South  Level Estimated
Wed 05:50:00 PM 44.5527 -122.4308 174° South  Level Estimated
Wed 05:51:00 PM 44.4729 -122.4182 174° South  Level Estimated
Wed 05:52:00 PM 44.3932 -122.4057 174° South  Level Estimated
Wed 05:53:00 PM 44.3135 -122.3933 174° South  Level Estimated
Wed 05:54:00 PM 44.2338 -122.3809 174° South  Level Estimated
Wed 05:55:00 PM 44.1541 -122.3684 174° South  Level Estimated
Wed 05:56:00 PM 44.0744 -122.3561 174° South  Level Estimated
Wed 05:57:00 PM 43.9947 -122.3438 174° South  Level Estimated
Wed 05:58:00 PM 43.9150 -122.3315 174° South  Level Estimated
Wed 05:59:00 PM 43.8352 -122.3192 174° South  Level Estimated
Wed 06:00:00 PM 43.7555 -122.3070 174° South  Level Estimated
Wed 06:01:00 PM 43.6758 -122.2948 174° South  Level Estimated
Wed 06:02:00 PM 43.5961 -122.2826 174° South  Level Estimated
Wed 06:03:00 PM 43.5163 -122.2705 174° South  Level Estimated
Wed 06:04:00 PM 43.4366 -122.2584 174° South  Level Estimated
Wed 06:05:00 PM 43.3569 -122.2463 174° South  Level Estimated
Wed 06:06:00 PM 43.2772 -122.2343 174° South  Level Estimated
Wed 06:07:00 PM 43.1974 -122.2223 174° South  Level Estimated
Wed 06:08:00 PM 43.1177 -122.2103 174° South  Level Estimated
Wed 06:09:00 PM 43.0380 -122.1983 174° South  Level Estimated
Wed 06:10:00 PM 42.9582 -122.1864 174° South  Level Estimated
Wed 06:11:00 PM 42.8785 -122.1746 174° South  Level Estimated
Wed 06:12:00 PM 42.7988 -122.1627 174° South  Level Estimated
Wed 06:13:00 PM 42.7191 -122.1509 174° South  Level Estimated
Wed 06:14:00 PM 42.6393 -122.1391 174° South  Level Estimated
Wed 06:15:00 PM 42.5667 -122.1284 174° South  Level Estimated
Wed 06:16:00 PM 42.4941 -122.1177 174° South  Level Estimated
Wed 06:17:00 PM 42.4215 -122.1070 174° South  Level Estimated
Wed 06:18:00 PM 42.3489 -122.0964 174° South  Level Estimated
Wed 06:19:00 PM 42.2763 -122.0858 174° South  Level Estimated
Wed 06:20:00 PM 42.2037 -122.0752 174° South  Level Estimated
Wed 06:21:00 PM 42.1310 -122.0646 174° South  Level Estimated
Wed 06:22:00 PM 42.0584 -122.0541 174° South  Level Estimated
Wed 06:23:00 PM 41.9858 -122.0436 174° South  Level Estimated
Wed 06:24:00 PM 41.9132 -122.0331 174° South  Level Estimated
Wed 06:25:00 PM 41.8399 -122.0225 174° South  Level Estimated
Wed 06:26:00 PM 41.7666 -122.0120 174° South  Level Estimated
Wed 06:27:00 PM 41.6933 -122.0015 174° South  Level Estimated
Wed 06:28:00 PM 41.6200 -121.9910 174° South  Level Estimated
Wed 06:29:00 PM 41.5466 -121.9805 174° South  Level Estimated
Wed 06:30:00 PM 41.4733 -121.9701 174° South  Level Estimated
Wed 06:31:00 PM 41.4000 -121.9596 174° South  Level Estimated
Wed 06:32:00 PM 41.3267 -121.9492 174° South  Level Estimated
Wed 06:33:00 PM 41.2534 -121.9389 174° South  Level Estimated
Wed 06:34:00 PM 41.1801 -121.9285 174° South  Level Estimated
Wed 06:35:00 PM 41.1068 -121.9182 174° South  Level Estimated
Wed 06:36:00 PM 41.0334 -121.9079 174° South  Level Estimated
Wed 06:37:00 PM 40.9601 -121.8976 174° South  Level Estimated
Wed 06:38:00 PM 40.8868 -121.8873 174° South  Level Estimated
Wed 06:39:00 PM 40.8135 -121.8771 174° South  Level Estimated
Wed 06:40:00 PM 40.7402 -121.8669 174° South  Level Estimated
Wed 06:41:00 PM 40.6668 -121.8567 174° South  Level Estimated
Wed 06:42:00 PM 40.5935 -121.8465 174° South  Level Estimated
Wed 06:43:00 PM 40.5202 -121.8364 174° South  Level Estimated
Wed 06:44:00 PM 40.4469 -121.8263 174° South  Level Estimated
Wed 06:45:00 PM 40.3735 -121.8162 174° South  Level Estimated
Wed 06:46:00 PM 40.3002 -121.8061 174° South  Level Estimated
Wed 06:47:00 PM 40.2269 -121.7960 174° South  Level Estimated
Wed 06:48:00 PM 40.1535 -121.7860 174° South  Level Estimated
Wed 06:49:00 PM 40.0802 -121.7760 174° South  Level Estimated
Wed 06:50:00 PM 40.0069 -121.7660 174° South  Level Estimated
Wed 06:51:00 PM 39.9332 -121.7560 180° South  Level Estimated
Wed 06:52:00 PM 39.8596 -121.7459 176° South  Level Estimated
Wed 06:53:00 PM 39.7876 -121.7233 166° South  Level FlightAware Approximate
Wed 06:54:00 PM 39.7177 -121.6925 161° South  Level FlightAware Approximate
Wed 06:55:00 PM 39.6479 -121.6617 161° South  Level FlightAware Approximate
Wed 06:56:00 PM 39.5701 -121.6333 180° South  Level FlightAware Approximate
Wed 06:57:00 PM 39.4964 -121.6333 180° South  Level FlightAware Approximate
Wed 06:58:00 PM 39.4228 -121.6273 176° South  Level FlightAware Approximate
Wed 06:59:00 PM 39.3493 -121.6199 176° South  Level FlightAware Approximate
Wed 07:00:00 PM 39.2757 -121.6167 180° South  Level FlightAware Approximate
Wed 07:01:00 PM 39.2021 -121.6127 174° South  Level FlightAware Approximate
Wed 07:02:00 PM 39.1287 -121.6036 174° South  Level FlightAware Approximate
Wed 07:03:00 PM 39.0552 -121.5936 174° South  Level FlightAware Approximate
Wed 07:04:00 PM 38.9818 -121.5833 180° South  Level FlightAware Approximate
Wed 07:05:00 PM 38.9080 -121.5833 180° South  Level FlightAware Approximate
Wed 07:06:00 PM 38.8342 -121.5833 180° South  Level FlightAware Approximate
Wed 07:07:00 PM 38.7604 -121.5833 180° South  Level FlightAware Approximate
Wed 07:08:00 PM 38.6954 -121.5908 180° South  Level Estimated
Wed 07:09:00 PM 38.6954 -121.5908 180° South  Level Estimated
Wed 07:10:00 PM 38.6954 -121.5908 180° South  Level Estimated
Wed 07:11:00 PM 38.6954 -121.5908 180° South  Level Estimated
Wed 07:12:00 PM 38.6954 -121.5908 180° South  Level Estimated
Wed 07:13:00 PM 38.6954 -121.5908 180° South  Level Estimated
Wed 07:14:00 PM 38.6954 -121.5908 180° South  Level Estimated
Wed 07:15:00 PM 38.6954 -121.5908 180° South  Level Estimated
Wed 07:16:00 PM 38.6954 -121.5908 180° South  Level Estimated
Wed 07:17:00 PM 38.6954 -121.5908 180° South  Level Estimated
Wed 07:18:00 PM 38.6954 -121.5908 180° South  Level Estimated
Wed 07:19:00 PM 38.6954 -121.5908 180° South  Level Estimated
Wed 07:20:00 PM 38.6954 -121.5908 180° South  Level Estimated
Wed 07:21:00 PM 38.6954 -121.5908 180° South  Level Estimated
Wed 07:22:00 PM 38.6954 -121.5908 180° South  Level Estimated
Wed 07:23:00 PM 38.6954 -121.5908 180° South  Level Estimated
Wed 07:24:00 PM 38.6954 -121.5908 180° South  Level Estimated
Wed 07:25:00 PM 38.6954 -121.5908 180° South  Level Estimated
Wed 07:26:00 PM 38.6954 -121.5908 180° South  Level Estimated
Wed 07:27:00 PM 38.6954 -121.5908 180° South  Level Estimated

Login

Don't have an account? Register now (free) for customized features, flight alerts, and more!